createdAt,value
2022-09-09T04:00:29.892Z,18.36
2022-09-09T04:05:29.828Z,18.57
2022-09-09T04:10:29.768Z,18.57
2022-09-09T04:15:29.720Z,18.67
2022-09-09T04:20:29.683Z,18.70
2022-09-09T04:25:29.610Z,18.63
2022-09-09T04:30:29.552Z,18.72
2022-09-09T04:35:29.499Z,18.90
2022-09-09T04:40:29.460Z,18.95
2022-09-09T04:45:29.439Z,18.85
2022-09-09T04:50:29.347Z,18.86
2022-09-09T04:55:29.273Z,18.88
2022-09-09T05:00:29.316Z,18.88
2022-09-09T05:05:29.249Z,18.84
2022-09-09T05:10:29.107Z,18.89
2022-09-09T05:15:29.063Z,18.86
2022-09-09T05:20:29.032Z,18.81
2022-09-09T05:25:28.956Z,18.87
2022-09-09T05:30:28.890Z,18.87
2022-09-09T05:35:28.844Z,18.99
2022-09-09T05:40:28.814Z,18.93
2022-09-09T05:45:28.722Z,18.83
2022-09-09T05:50:31.522Z,18.79
2022-09-09T05:55:28.635Z,18.63
2022-09-09T06:00:28.585Z,18.71
2022-09-09T06:05:28.514Z,18.61
2022-09-09T06:10:28.466Z,18.58
2022-09-09T06:15:28.407Z,18.73
2022-09-09T06:20:28.374Z,18.79
2022-09-09T06:25:28.295Z,18.87
2022-09-09T06:30:28.243Z,18.79
2022-09-09T06:35:28.192Z,19.00
2022-09-09T06:40:28.157Z,19.10
2022-09-09T06:45:28.079Z,19.34
2022-09-09T06:50:28.026Z,19.65
2022-09-09T06:55:27.967Z,19.97
2022-09-09T07:00:27.975Z,20.09
2022-09-09T07:05:27.858Z,20.35
2022-09-09T07:10:27.825Z,20.50
2022-09-09T07:15:27.750Z,20.45
2022-09-09T07:20:27.704Z,20.69
2022-09-09T07:25:27.639Z,20.94
2022-09-09T07:30:28.098Z,20.43
2022-09-09T07:35:27.526Z,20.22
2022-09-09T07:40:27.488Z,20.64
2022-09-09T07:45:27.417Z,20.63
2022-09-09T07:50:27.357Z,20.75
2022-09-09T07:55:27.308Z,21.55
2022-09-09T08:00:27.274Z,21.52
2022-09-09T08:05:27.196Z,21.71
2022-09-09T08:10:27.139Z,21.41
2022-09-09T08:15:27.086Z,21.80
2022-09-09T08:20:27.046Z,21.40
2022-09-09T08:25:26.976Z,21.20
2022-09-09T08:30:26.921Z,20.87
2022-09-09T08:35:26.867Z,20.98
2022-09-09T08:40:26.832Z,21.12
2022-09-09T08:45:26.762Z,21.86
2022-09-09T08:50:26.705Z,22.38
2022-09-09T08:55:26.652Z,22.13
2022-09-09T09:00:26.612Z,21.40
2022-09-09T09:05:26.540Z,21.11
2022-09-09T09:10:41.185Z,20.99
2022-09-09T09:15:29.511Z,21.32
2022-09-09T09:20:26.397Z,22.24
2022-09-09T09:25:26.320Z,22.47
2022-09-09T09:30:30.306Z,22.42
2022-09-09T09:35:26.207Z,22.40
2022-09-09T09:40:26.171Z,23.20
2022-09-09T09:45:26.101Z,22.74
2022-09-09T09:50:26.046Z,22.43
2022-09-09T09:55:25.995Z,22.22
2022-09-09T10:00:25.953Z,22.39
2022-09-09T10:05:27.081Z,22.84
2022-09-09T10:10:25.826Z,23.62
2022-09-09T10:15:32.968Z,23.56
2022-09-09T10:20:25.720Z,22.91
2022-09-09T10:25:25.665Z,23.01
2022-09-09T10:30:25.615Z,23.46
2022-09-09T10:35:25.581Z,23.56
2022-09-09T10:40:25.582Z,23.36
2022-09-09T10:45:25.453Z,24.11
2022-09-09T10:50:28.184Z,24.37
2022-09-09T10:55:29.734Z,24.37
2022-09-09T11:00:25.295Z,23.99
2022-09-09T11:05:25.240Z,23.95
2022-09-09T11:10:25.306Z,24.10
2022-09-09T11:15:25.149Z,24.54
2022-09-09T11:20:25.091Z,24.22
2022-09-09T11:25:25.014Z,23.71
2022-09-09T11:30:51.598Z,23.87
2022-09-09T11:35:25.926Z,23.44
2022-09-09T11:40:24.857Z,22.98
2022-09-09T11:45:24.800Z,22.66
2022-09-09T11:50:24.778Z,22.63
2022-09-09T11:55:24.716Z,22.59
2022-09-09T12:00:24.636Z,23.18
2022-09-09T12:05:24.661Z,23.02
2022-09-09T12:10:24.527Z,23.12
2022-09-09T12:15:24.500Z,22.68
2022-09-09T12:20:24.649Z,22.68
2022-09-09T12:25:24.373Z,22.42
2022-09-09T12:30:24.316Z,22.09
2022-09-09T12:35:24.384Z,21.93
2022-09-09T12:40:24.205Z,21.92
2022-09-09T12:45:24.148Z,21.95
2022-09-09T12:50:24.092Z,22.13
2022-09-09T12:55:24.081Z,23.02
2022-09-09T13:00:23.987Z,22.89
2022-09-09T13:05:23.936Z,22.21
2022-09-09T13:10:36.341Z,21.46
2022-09-09T13:15:24.936Z,19.78
2022-09-09T13:20:23.763Z,19.92
2022-09-09T13:25:23.709Z,21.32
2022-09-09T13:30:23.822Z,22.00
2022-09-09T13:35:23.621Z,21.62
2022-09-09T13:40:23.542Z,21.81
2022-09-09T13:45:23.493Z,21.56
2022-09-09T13:50:23.680Z,21.75
2022-09-09T13:55:23.400Z,22.75
2022-09-09T14:00:23.351Z,22.88
2022-09-09T14:05:23.289Z,22.56
2022-09-09T14:10:23.219Z,22.53
2022-09-09T14:15:23.187Z,22.28
2022-09-09T14:20:23.112Z,22.13
2022-09-09T14:25:23.057Z,21.78
2022-09-09T14:30:23.004Z,21.87
2022-09-09T14:35:22.969Z,21.45
2022-09-09T14:40:22.891Z,21.73
2022-09-09T14:45:22.823Z,21.58
2022-09-09T14:50:22.780Z,20.89
2022-09-09T14:55:22.751Z,20.28
2022-09-09T15:00:22.721Z,20.27
2022-09-09T15:05:22.621Z,20.20
2022-09-09T15:10:22.563Z,20.49
2022-09-09T15:15:22.533Z,20.85
2022-09-09T15:20:22.453Z,20.74
2022-09-09T15:25:22.399Z,20.81
2022-09-09T15:30:22.332Z,21.04
2022-09-09T15:35:22.311Z,21.05
2022-09-09T15:40:22.323Z,21.21
2022-09-09T15:45:22.186Z,21.25
2022-09-09T15:50:22.125Z,21.28
2022-09-09T15:55:22.092Z,20.96
2022-09-09T16:00:22.012Z,20.49
2022-09-09T16:05:21.963Z,20.23
2022-09-09T16:10:21.905Z,20.14
2022-09-09T16:15:21.873Z,20.32
2022-09-09T16:20:28.831Z,20.78
2022-09-09T16:25:21.738Z,20.94
2022-09-09T16:30:21.688Z,20.61
2022-09-09T16:35:21.640Z,20.63
2022-09-09T16:40:21.706Z,20.32
2022-09-09T16:45:21.522Z,20.13
2022-09-09T16:50:21.468Z,20.29
2022-09-09T16:55:21.435Z,20.12
2022-09-09T17:00:21.358Z,20.01
2022-09-09T17:05:21.301Z,19.80
2022-09-09T17:10:21.251Z,19.61
2022-09-09T17:15:21.206Z,19.54
2022-09-09T17:20:21.137Z,19.60
2022-09-09T17:25:21.078Z,19.60
2022-09-09T17:30:21.028Z,19.44
2022-09-09T17:35:20.988Z,19.38
2022-09-09T17:40:21.016Z,19.37
2022-09-09T17:45:20.845Z,19.23
2022-09-09T17:50:20.803Z,19.20
2022-09-09T17:55:20.764Z,19.07
2022-09-09T18:00:20.692Z,18.85
2022-09-09T18:05:20.636Z,18.61
2022-09-09T18:10:20.581Z,18.60
2022-09-09T18:15:33.342Z,18.58
2022-09-09T18:20:21.471Z,18.66
2022-09-09T18:25:20.421Z,18.76
2022-09-09T18:30:20.361Z,18.89
2022-09-09T18:35:20.326Z,18.81
2022-09-09T18:40:20.254Z,18.90
2022-09-09T18:45:20.194Z,18.84
2022-09-09T18:50:20.139Z,18.92
2022-09-09T18:55:20.101Z,18.83
2022-09-09T19:00:20.026Z,18.86
2022-09-09T19:05:19.968Z,18.81
2022-09-09T19:10:19.917Z,18.81
2022-09-09T19:15:19.897Z,18.73
2022-09-09T19:20:19.808Z,18.74
2022-09-09T19:25:19.750Z,18.60
2022-09-09T19:30:19.696Z,18.60
2022-09-09T19:35:19.667Z,18.49
2022-09-09T19:40:19.584Z,18.51
2022-09-09T19:45:19.527Z,18.51
2022-09-09T19:50:19.475Z,18.59
2022-09-09T19:55:19.439Z,18.74
2022-09-09T20:00:19.358Z,18.80
2022-09-09T20:05:19.312Z,18.88
2022-09-09T20:10:19.408Z,18.77
2022-09-09T20:15:19.223Z,18.84
2022-09-09T20:20:19.138Z,18.85
2022-09-09T20:25:19.084Z,18.89
2022-09-09T20:30:19.028Z,18.83
2022-09-09T20:35:18.998Z,18.78
2022-09-09T20:40:18.920Z,18.86
2022-09-09T20:45:18.871Z,18.85
2022-09-09T20:50:18.812Z,18.94
2022-09-09T20:55:18.776Z,18.97
2022-09-09T21:00:18.703Z,18.84
2022-09-09T21:05:22.018Z,18.81
2022-09-09T21:10:19.590Z,18.78
2022-09-09T21:15:18.557Z,18.72
2022-09-09T21:20:18.479Z,18.76
2022-09-09T21:25:18.422Z,18.79
2022-09-09T21:30:18.366Z,18.87
2022-09-09T21:35:18.335Z,18.89
2022-09-09T21:40:18.258Z,18.72
2022-09-09T21:45:18.205Z,18.60
2022-09-09T21:50:18.145Z,18.48
2022-09-09T21:55:18.122Z,18.42
2022-09-09T22:00:18.047Z,18.46
2022-09-09T22:05:17.980Z,18.68
2022-09-09T22:10:17.932Z,18.76
2022-09-09T22:15:17.979Z,18.74
2022-09-09T22:20:17.817Z,18.65
2022-09-09T22:25:17.760Z,18.64
2022-09-09T22:30:17.705Z,18.64
2022-09-09T22:35:17.677Z,18.70
2022-09-09T22:40:17.600Z,18.79
2022-09-09T22:45:17.542Z,18.67
2022-09-09T22:50:17.490Z,18.70
2022-09-09T22:55:17.455Z,18.57
2022-09-09T23:00:17.366Z,18.40
2022-09-09T23:05:17.319Z,18.40
2022-09-09T23:10:17.269Z,18.39
2022-09-09T23:15:17.242Z,18.54
2022-09-09T23:20:17.157Z,18.60
2022-09-09T23:25:17.089Z,18.43
